Seafrance Rodin — FOBQ — position and weather

sailwx.info

Track history (hours):
 
Tides and Currents Weather Stations Pressure Air Temp Water Temp Dewpoint Dewpoint Depression Visibility Wind Speed Wind Dir Waves Ship Positions

Seafrance Rodin

Operator: SeaFrance

Last reported at 2020-Jan-25 03:31 UTC. Time now 2020-Jan-25 04:28 UTC.
Position N 50°58' E 001°48'.

Length 185 m; draft 5.8 m.

Type: Ship (hazmat cat C). MMSI: 227022800.

Date/timePositionNaut miles runAvg speedWind from/ knotsBaromVisibWave heightAir tempDewpointWater temp
2020-Jan-25 03:31N 50°58' E 001°48'15 6.1
2020-Jan-25 01:00N 51°04' E 001°25'5 6.9
2020-Jan-25 00:21N 51°07' E 001°20'12 9.1
2020-Jan-24 23:00N 51°02' E 001°37'4 1.7
2020-Jan-24 20:31N 51°01' E 001°31'918.3
2020-Jan-24 19:59N 51°07' E 001°20'0 0.0
2020-Jan-24 19:24N 51°07' E 001°20'13 3.7
2020-Jan-24 16:01N 51°00' E 001°37'10 5.2
2020-Jan-24 14:00N 51°07' E 001°24'19 9.6
2020-Jan-24 12:00N 50°58' E 001°51'1616.4
2020-Jan-24 11:00N 51°04' E 001°27'5 4.1
2020-Jan-24 09:44N 51°07' E 001°20'22 9.7
2020-Jan-24 07:30N 50°58' E 001°51'3 6.5
2020-Jan-24 07:01N 50°58' E 001°46'2 0.5
2020-Jan-24 03:31N 50°58' E 001°49'2 1.6
2020-Jan-24 02:31N 50°58' E 001°51'17 5.7
2020-Jan-23 23:30N 51°06' E 001°27'1711.4
2020-Jan-23 22:01N 50°58' E 001°51'2 0.4
2020-Jan-23 16:30N 50°58' E 001°48'1616.4
2020-Jan-23 15:30N 51°05' E 001°25'1 1.0
2020-Jan-23 14:01N 51°07' E 001°24'1912.7
2020-Jan-23 12:30N 50°58' E 001°51'1510.0
2020-Jan-23 11:01N 51°03' E 001°29'7 5.3
2020-Jan-23 09:41N 51°07' E 001°20'2 0.6
2020-Jan-23 06:00N 51°06' E 001°23'2 4.5
2020-Jan-23 05:30N 51°07' E 001°20'19 1.8
2020-Jan-22 19:01N 50°58' E 001°46'3 0.6
2020-Jan-22 13:00N 50°58' E 001°51'17 8.7
2020-Jan-22 11:01N 51°05' E 001°26'7 3.6
2020-Jan-22 09:00N 51°02' E 001°36'917.2
2020-Jan-22 08:30N 50°58' E 001°49'8 1.9
2020-Jan-22 04:00N 51°02' E 001°37'815.7
2020-Jan-22 03:30N 50°58' E 001°47'19 5.2
2020-Jan-21 23:45N 51°07' E 001°20'4 1.4
2020-Jan-21 20:31N 51°04' E 001°26'17 2.3
2020-Jan-21 13:00N 50°58' E 001°51'8 5.6
2020-Jan-21 11:30N 50°59' E 001°38'9 2.1
2020-Jan-21 07:30N 50°58' E 001°51'3 6.2
2020-Jan-21 07:00N 50°58' E 001°46'7 2.3
2020-Jan-21 04:00N 51°02' E 001°37'816.2
2020-Jan-21 03:30N 50°58' E 001°49'2 3.4
2020-Jan-21 03:00N 50°58' E 001°51'11 7.2
2020-Jan-21 01:31N 50°59' E 001°34'815.3
2020-Jan-21 01:01N 51°05' E 001°26'13 3.2
2020-Jan-20 21:01N 50°58' E 001°44'9 3.8
2020-Jan-20 18:30N 51°04' E 001°32'13 8.9
2020-Jan-20 17:00N 50°58' E 001°51'22 8.9
2020-Jan-20 14:35N 51°07' E 001°20'1312.3
2020-Jan-20 13:30N 51°01' E 001°38'8 5.6
2020-Jan-20 12:00N 50°58' E 001°51'1515.1
2020-Jan-20 11:00N 51°03' E 001°28'5 3.5
2020-Jan-20 09:31N 51°07' E 001°24'917.0
2020-Jan-20 09:00N 51°03' E 001°36'9 4.7
2020-Jan-20 07:00N 50°58' E 001°48'1716.6
2020-Jan-20 06:00N 51°05' E 001°25'3 6.7
2020-Jan-20 05:29N 51°07' E 001°20'0 0.0
2020-Jan-20 04:58N 51°07' E 001°20'1913.3
2020-Jan-20 03:31N 50°58' E 001°47'2 2.5
2020-Jan-20 02:30N 50°58' E 001°51'1010.0
2020-Jan-20 01:30N 51°00' E 001°36'815.5
2020-Jan-20 01:00N 51°05' E 001°26'2 1.3
2020-Jan-19 23:31N 51°07' E 001°25'16 6.3
2020-Jan-19 21:00N 50°58' E 001°46'19 9.3
2020-Jan-19 18:59N 51°07' E 001°20'816.2
2020-Jan-19 18:31N 51°04' E 001°32'12 6.1
2020-Jan-19 16:30N 50°58' E 001°48'2 0.5
2020-Jan-19 13:00N 50°58' E 001°51'14 7.0
2020-Jan-19 11:00N 51°03' E 001°30'815.6
2020-Jan-19 10:30N 51°07' E 001°20'0 0.0
2020-Jan-19 09:59N 51°07' E 001°20'2013.6
2020-Jan-19 08:31N 50°58' E 001°49'2 0.9
2020-Jan-19 06:30N 50°58' E 001°51'0 0.0
2020-Jan-19 04:30N 50°58' E 001°51'0 0.0
2020-Jan-19 03:30N 50°58' E 001°51'18 7.1
2020-Jan-19 01:00N 51°05' E 001°25'4 6.4
2020-Jan-19 00:21N 51°07' E 001°20'22 9.3
2020-Jan-18 22:00N 50°58' E 001°51'0 0.0
2020-Jan-18 21:31N 50°58' E 001°51'1212.1
2020-Jan-18 20:30N 51°01' E 001°33'10 7.8
2020-Jan-18 19:14N 51°07' E 001°20'1613.3
2020-Jan-18 18:00N 50°59' E 001°43'510.9
2020-Jan-18 17:30N 50°58' E 001°51'1 1.0
2020-Jan-18 16:31N 50°58' E 001°50'1515.2
2020-Jan-18 15:31N 51°04' E 001°27'6 5.6
2020-Jan-18 14:30N 51°07' E 001°20'1212.4
2020-Jan-18 13:30N 51°01' E 001°37'12 3.9
2020-Jan-18 10:21N 51°07' E 001°20'0 0.0
2020-Jan-18 09:59N 51°07' E 001°20'12 3.4
2020-Jan-18 06:30N 51°00' E 001°35'816.5
2020-Jan-18 06:00N 51°05' E 001°25'9 4.3
2020-Jan-18 04:01N 51°03' E 001°38'7 3.5
2020-Jan-18 02:01N 50°58' E 001°46'1515.5
2020-Jan-18 01:00N 51°05' E 001°24'4 3.1
2020-Jan-17 23:53N 51°07' E 001°20'0 0.0
2020-Jan-17 19:55N 51°07' E 001°20'1611.6
2020-Jan-17 18:31N 50°59' E 001°43'5 5.4
2020-Jan-17 17:30N 50°58' E 001°51'1111.0
2020-Jan-17 16:31N 51°01' E 001°34'11 6.6
2020-Jan-17 14:52N 51°07' E 001°20'22 6.5
2020-Jan-17 11:30N 50°58' E 001°52'15 4.9
2020-Jan-17 08:30N 51°04' E 002°13'5 3.3
2020-Jan-17 07:00N 51°03' E 002°21'0 0.2
2020-Jan-17 04:59N 51°03' E 002°22'0 0.0
2020-Jan-17 04:30N 51°03' E 002°22'0 0.0
2020-Jan-17 04:00N 51°03' E 002°22'0 0.0
2020-Jan-17 02:30N 51°03' E 002°22'0 0.0
2020-Jan-17 00:31N 51°03' E 002°22'0 0.0
2020-Jan-16 17:28N 51°03' E 002°22'0 0.0
2020-Jan-16 16:57N 51°03' E 002°22'0 0.0
2020-Jan-16 14:00N 51°03' E 002°22'0 0.0
2020-Jan-16 13:00N 51°03' E 002°22'0 0.0
2020-Jan-16 12:30N 51°03' E 002°22'0 0.0
2020-Jan-16 12:00N 51°03' E 002°22'0 0.0
2020-Jan-16 10:59N 51°03' E 002°22'0 0.0
2020-Jan-16 09:30N 51°03' E 002°22'0 0.0
2020-Jan-16 08:30N 51°03' E 002°22'0 0.0
2020-Jan-16 04:30N 51°03' E 002°22'0 0.0
2020-Jan-16 04:00N 51°03' E 002°22'0 0.0
2020-Jan-16 03:30N 51°03' E 002°22'0 0.0
2020-Jan-16 02:30N 51°03' E 002°22'0 0.0
2020-Jan-16 01:30N 51°03' E 002°22'0 0.0
2020-Jan-15 23:30N 51°03' E 002°22'0 0.0
2020-Jan-15 22:30N 51°03' E 002°22'0 0.0
2020-Jan-15 20:00N 51°03' E 002°22'0 0.0
2020-Jan-15 19:30N 51°03' E 002°22'0 0.0
2020-Jan-15 18:00N 51°03' E 002°22'0 0.0
2020-Jan-15 13:50N 51°03' E 002°22'0 0.0
2020-Jan-15 12:29N 51°03' E 002°22'0 0.0
2020-Jan-15 11:30N 51°03' E 002°22'0 0.0
2020-Jan-15 09:30N 51°03' E 002°22'0 0.0
2020-Jan-15 08:30N 51°03' E 002°22'0 0.0
2020-Jan-15 04:59N 51°03' E 002°22'  
Track history (hours):
 
Tides and Currents Weather Stations Pressure Air Temp Water Temp Dewpoint Dewpoint Depression Visibility Wind Speed Wind Dir Waves Ship Positions

Seafrance Rodin

Operator: SeaFrance

Last reported at 2020-Jan-25 03:31 UTC. Time now 2020-Jan-25 04:28 UTC.
Position N 50°58' E 001°48'.

Length 185 m; draft 5.8 m.

Type: Ship (hazmat cat C). MMSI: 227022800.

Date/timePositionNaut miles runAvg speedWind from/ knotsBaromVisibWave heightAir tempDewpointWater temp
2020-Jan-25 03:31N 50°58' E 001°48'15 6.1
2020-Jan-25 01:00N 51°04' E 001°25'5 6.9
2020-Jan-25 00:21N 51°07' E 001°20'12 9.1
2020-Jan-24 23:00N 51°02' E 001°37'4 1.7
2020-Jan-24 20:31N 51°01' E 001°31'918.3
2020-Jan-24 19:59N 51°07' E 001°20'0 0.0
2020-Jan-24 19:24N 51°07' E 001°20'13 3.7
2020-Jan-24 16:01N 51°00' E 001°37'10 5.2
2020-Jan-24 14:00N 51°07' E 001°24'19 9.6
2020-Jan-24 12:00N 50°58' E 001°51'1616.4
2020-Jan-24 11:00N 51°04' E 001°27'5 4.1
2020-Jan-24 09:44N 51°07' E 001°20'22 9.7
2020-Jan-24 07:30N 50°58' E 001°51'3 6.5
2020-Jan-24 07:01N 50°58' E 001°46'2 0.5
2020-Jan-24 03:31N 50°58' E 001°49'2 1.6
2020-Jan-24 02:31N 50°58' E 001°51'17 5.7
2020-Jan-23 23:30N 51°06' E 001°27'1711.4
2020-Jan-23 22:01N 50°58' E 001°51'2 0.4
2020-Jan-23 16:30N 50°58' E 001°48'1616.4
2020-Jan-23 15:30N 51°05' E 001°25'1 1.0
2020-Jan-23 14:01N 51°07' E 001°24'1912.7
2020-Jan-23 12:30N 50°58' E 001°51'1510.0
2020-Jan-23 11:01N 51°03' E 001°29'7 5.3
2020-Jan-23 09:41N 51°07' E 001°20'2 0.6
2020-Jan-23 06:00N 51°06' E 001°23'2 4.5
2020-Jan-23 05:30N 51°07' E 001°20'19 1.8
2020-Jan-22 19:01N 50°58' E 001°46'3 0.6
2020-Jan-22 13:00N 50°58' E 001°51'17 8.7
2020-Jan-22 11:01N 51°05' E 001°26'7 3.6
2020-Jan-22 09:00N 51°02' E 001°36'917.2
2020-Jan-22 08:30N 50°58' E 001°49'8 1.9
2020-Jan-22 04:00N 51°02' E 001°37'815.7
2020-Jan-22 03:30N 50°58' E 001°47'19 5.2
2020-Jan-21 23:45N 51°07' E 001°20'4 1.4
2020-Jan-21 20:31N 51°04' E 001°26'17 2.3
2020-Jan-21 13:00N 50°58' E 001°51'8 5.6
2020-Jan-21 11:30N 50°59' E 001°38'9 2.1
2020-Jan-21 07:30N 50°58' E 001°51'3 6.2
2020-Jan-21 07:00N 50°58' E 001°46'7 2.3
2020-Jan-21 04:00N 51°02' E 001°37'816.2
2020-Jan-21 03:30N 50°58' E 001°49'2 3.4
2020-Jan-21 03:00N 50°58' E 001°51'11 7.2
2020-Jan-21 01:31N 50°59' E 001°34'815.3
2020-Jan-21 01:01N 51°05' E 001°26'13 3.2
2020-Jan-20 21:01N 50°58' E 001°44'9 3.8
2020-Jan-20 18:30N 51°04' E 001°32'13 8.9
2020-Jan-20 17:00N 50°58' E 001°51'22 8.9
2020-Jan-20 14:35N 51°07' E 001°20'1312.3
2020-Jan-20 13:30N 51°01' E 001°38'8 5.6
2020-Jan-20 12:00N 50°58' E 001°51'1515.1
2020-Jan-20 11:00N 51°03' E 001°28'5 3.5
2020-Jan-20 09:31N 51°07' E 001°24'917.0
2020-Jan-20 09:00N 51°03' E 001°36'9 4.7
2020-Jan-20 07:00N 50°58' E 001°48'1716.6
2020-Jan-20 06:00N 51°05' E 001°25'3 6.7
2020-Jan-20 05:29N 51°07' E 001°20'0 0.0
2020-Jan-20 04:58N 51°07' E 001°20'1913.3
2020-Jan-20 03:31N 50°58' E 001°47'2 2.5
2020-Jan-20 02:30N 50°58' E 001°51'1010.0
2020-Jan-20 01:30N 51°00' E 001°36'815.5
2020-Jan-20 01:00N 51°05' E 001°26'2 1.3
2020-Jan-19 23:31N 51°07' E 001°25'16 6.3
2020-Jan-19 21:00N 50°58' E 001°46'19 9.3
2020-Jan-19 18:59N 51°07' E 001°20'816.2
2020-Jan-19 18:31N 51°04' E 001°32'12 6.1
2020-Jan-19 16:30N 50°58' E 001°48'2 0.5
2020-Jan-19 13:00N 50°58' E 001°51'14 7.0
2020-Jan-19 11:00N 51°03' E 001°30'815.6
2020-Jan-19 10:30N 51°07' E 001°20'0 0.0
2020-Jan-19 09:59N 51°07' E 001°20'2013.6
2020-Jan-19 08:31N 50°58' E 001°49'2 0.9
2020-Jan-19 06:30N 50°58' E 001°51'0 0.0
2020-Jan-19 04:30N 50°58' E 001°51'0 0.0
2020-Jan-19 03:30N 50°58' E 001°51'18 7.1
2020-Jan-19 01:00N 51°05' E 001°25'4 6.4
2020-Jan-19 00:21N 51°07' E 001°20'22 9.3
2020-Jan-18 22:00N 50°58' E 001°51'0 0.0
2020-Jan-18 21:31N 50°58' E 001°51'1212.1
2020-Jan-18 20:30N 51°01' E 001°33'10 7.8
2020-Jan-18 19:14N 51°07' E 001°20'1613.3
2020-Jan-18 18:00N 50°59' E 001°43'510.9
2020-Jan-18 17:30N 50°58' E 001°51'1 1.0
2020-Jan-18 16:31N 50°58' E 001°50'1515.2
2020-Jan-18 15:31N 51°04' E 001°27'6 5.6
2020-Jan-18 14:30N 51°07' E 001°20'1212.4
2020-Jan-18 13:30N 51°01' E 001°37'12 3.9
2020-Jan-18 10:21N 51°07' E 001°20'0 0.0
2020-Jan-18 09:59N 51°07' E 001°20'12 3.4
2020-Jan-18 06:30N 51°00' E 001°35'816.5
2020-Jan-18 06:00N 51°05' E 001°25'9 4.3
2020-Jan-18 04:01N 51°03' E 001°38'7 3.5
2020-Jan-18 02:01N 50°58' E 001°46'1515.5
2020-Jan-18 01:00N 51°05' E 001°24'4 3.1
2020-Jan-17 23:53N 51°07' E 001°20'0 0.0
2020-Jan-17 19:55N 51°07' E 001°20'1611.6
2020-Jan-17 18:31N 50°59' E 001°43'5 5.4
2020-Jan-17 17:30N 50°58' E 001°51'1111.0
2020-Jan-17 16:31N 51°01' E 001°34'11 6.6
2020-Jan-17 14:52N 51°07' E 001°20'22 6.5
2020-Jan-17 11:30N 50°58' E 001°52'15 4.9
2020-Jan-17 08:30N 51°04' E 002°13'5 3.3
2020-Jan-17 07:00N 51°03' E 002°21'0 0.2
2020-Jan-17 04:59N 51°03' E 002°22'0 0.0
2020-Jan-17 04:30N 51°03' E 002°22'0 0.0
2020-Jan-17 04:00N 51°03' E 002°22'0 0.0
2020-Jan-17 02:30N 51°03' E 002°22'0 0.0
2020-Jan-17 00:31N 51°03' E 002°22'0 0.0
2020-Jan-16 17:28N 51°03' E 002°22'0 0.0
2020-Jan-16 16:57N 51°03' E 002°22'0 0.0
2020-Jan-16 14:00N 51°03' E 002°22'0 0.0
2020-Jan-16 13:00N 51°03' E 002°22'0 0.0
2020-Jan-16 12:30N 51°03' E 002°22'0 0.0
2020-Jan-16 12:00N 51°03' E 002°22'0 0.0
2020-Jan-16 10:59N 51°03' E 002°22'0 0.0
2020-Jan-16 09:30N 51°03' E 002°22'0 0.0
2020-Jan-16 08:30N 51°03' E 002°22'0 0.0
2020-Jan-16 04:30N 51°03' E 002°22'0 0.0
2020-Jan-16 04:00N 51°03' E 002°22'0 0.0
2020-Jan-16 03:30N 51°03' E 002°22'0 0.0
2020-Jan-16 02:30N 51°03' E 002°22'0 0.0
2020-Jan-16 01:30N 51°03' E 002°22'0 0.0
2020-Jan-15 23:30N 51°03' E 002°22'0 0.0
2020-Jan-15 22:30N 51°03' E 002°22'0 0.0
2020-Jan-15 20:00N 51°03' E 002°22'0 0.0
2020-Jan-15 19:30N 51°03' E 002°22'0 0.0
2020-Jan-15 18:00N 51°03' E 002°22'0 0.0
2020-Jan-15 13:50N 51°03' E 002°22'0 0.0
2020-Jan-15 12:29N 51°03' E 002°22'0 0.0
2020-Jan-15 11:30N 51°03' E 002°22'0 0.0
2020-Jan-15 09:30N 51°03' E 002°22'0 0.0
2020-Jan-15 08:30N 51°03' E 002°22'0 0.0
2020-Jan-15 04:59N 51°03' E 002°22'  

Dump ship's entire track history